Time;durP1;ratioP1;P1;durP2;ratioP2;P2;SDS_P1;SDS_P2;PMS_P1;PMS_P2;Temp;Humidity;BMP_temperature;BMP_pressure;BME280_temperature;BME280_humidity;BME280_pressure;Samples;Min_cycle;Max_cycle;Signal;HPM_P1;HPM_P2
2023/01/07 04:00:56;;;;;;;1.67;0.83;;;10.70;75.00;;;;;;5947044;23;20501;-76
2023/01/07 04:03:23;;;;;;;1.80;1.00;;;10.70;75.90;;;;;;4997722;28;20429;-76
2023/01/07 04:05:49;;;;;;;1.70;1.30;;;10.80;76.00;;;;;;4998138;28;20515;-76
2023/01/07 04:08:16;;;;;;;1.40;0.73;;;10.80;76.00;;;;;;4997550;28;20875;-76
2023/01/07 04:10:43;;;;;;;1.60;0.90;;;11.00;75.30;;;;;;4997050;28;20989;-76
2023/01/07 04:13:10;;;;;;;1.50;0.80;;;10.90;75.00;;;;;;4998073;28;20492;-76
2023/01/07 04:15:37;;;;;;;1.90;1.13;;;10.90;75.20;;;;;;4997413;28;20453;-76
2023/01/07 04:18:05;;;;;;;1.77;0.90;;;11.00;75.00;;;;;;4997052;28;20879;-76
2023/01/07 04:20:32;;;;;;;1.60;0.90;;;10.90;74.20;;;;;;4997288;28;20449;-76
2023/01/07 04:22:59;;;;;;;1.60;1.07;;;10.90;75.00;;;;;;4997260;28;20499;-76
2023/01/07 04:25:25;;;;;;;1.73;1.10;;;10.70;75.20;;;;;;4996911;28;20456;-76
2023/01/07 04:27:52;;;;;;;1.57;0.90;;;10.70;75.40;;;;;;4996893;28;20480;-76
2023/01/07 04:30:19;;;;;;;1.83;0.93;;;10.70;75.40;;;;;;4996741;28;20539;-77
2023/01/07 04:32:45;;;;;;;1.60;0.90;;;10.80;75.50;;;;;;4996775;28;20849;-76
2023/01/07 04:35:13;;;;;;;1.60;0.90;;;11.00;75.20;;;;;;4997057;28;20885;-76
2023/01/07 04:37:40;;;;;;;1.57;0.80;;;11.10;74.40;;;;;;4997044;28;20449;-76
2023/01/07 04:40:08;;;;;;;1.63;0.87;;;11.20;74.10;;;;;;4996957;28;20445;-76
2023/01/07 04:42:35;;;;;;;1.63;0.83;;;11.20;74.00;;;;;;4996820;28;20469;-76
2023/01/07 04:45:01;;;;;;;2.50;0.90;;;11.30;73.90;;;;;;4996875;28;20445;-76
2023/01/07 04:47:28;;;;;;;1.90;1.10;;;11.40;73.90;;;;;;4996797;28;20445;-76
2023/01/07 04:49:55;;;;;;;1.60;0.80;;;11.50;73.40;;;;;;4996763;28;20445;-76
2023/01/07 04:52:23;;;;;;;1.70;0.90;;;11.40;73.70;;;;;;4996617;28;20489;-76
2023/01/07 04:54:49;;;;;;;1.80;1.20;;;11.40;73.70;;;;;;4996365;28;20826;-76
2023/01/07 04:57:16;;;;;;;1.53;0.80;;;11.50;73.80;;;;;;4996347;28;20804;-76
2023/01/07 04:59:43;;;;;;;1.90;1.33;;;11.50;73.50;;;;;;4996623;28;20799;-76
2023/01/07 05:02:09;;;;;;;1.57;0.90;;;11.30;73.40;;;;;;4996059;28;20990;-77
2023/01/07 05:04:36;;;;;;;2.10;1.17;;;11.10;74.00;;;;;;4996533;28;20870;-76
2023/01/07 05:07:02;;;;;;;1.60;0.77;;;11.00;74.80;;;;;;4996171;28;21000;-76
2023/01/07 05:09:30;;;;;;;1.70;1.00;;;11.20;74.50;;;;;;4996315;28;20449;-75
2023/01/07 05:11:57;;;;;;;1.70;0.90;;;11.30;74.20;;;;;;4995652;28;20539;-76
2023/01/07 05:14:24;;;;;;;1.70;0.90;;;11.10;74.50;;;;;;4996333;28;20457;-76
2023/01/07 05:16:51;;;;;;;1.57;0.90;;;11.20;74.40;;;;;;4996300;28;20445;-76
2023/01/07 05:19:18;;;;;;;1.63;0.83;;;11.30;74.40;;;;;;4996743;28;20449;-76
2023/01/07 05:21:45;;;;;;;1.77;0.90;;;11.30;74.40;;;;;;4996158;28;20497;-76
2023/01/07 05:24:11;;;;;;;2.00;1.10;;;11.20;74.60;;;;;;4996176;28;20500;-76
2023/01/07 05:26:39;;;;;;;1.70;0.93;;;11.10;74.70;;;;;;4996106;28;20499;-76
2023/01/07 05:29:06;;;;;;;1.60;0.80;;;11.10;74.90;;;;;;4996069;28;20496;-76
2023/01/07 05:31:33;;;;;;;2.03;1.20;;;11.00;75.30;;;;;;4995544;28;20496;-76
2023/01/07 05:33:59;;;;;;;2.30;0.93;;;10.90;75.40;;;;;;4995686;28;20942;-76
2023/01/07 05:36:26;;;;;;;1.67;1.00;;;10.90;75.60;;;;;;4995621;28;20982;-76
2023/01/07 05:38:53;;;;;;;1.70;1.00;;;10.80;76.00;;;;;;4995573;28;20951;-76
2023/01/07 05:41:19;;;;;;;1.60;0.90;;;10.70;76.30;;;;;;4995745;28;20470;-76
2023/01/07 05:43:48;;;;;;;2.50;1.33;;;10.60;76.90;;;;;;4995785;28;20446;-76
2023/01/07 05:46:15;;;;;;;1.60;0.90;;;10.60;77.00;;;;;;4995674;28;20456;-76
2023/01/07 05:48:41;;;;;;;2.17;1.00;;;10.40;77.10;;;;;;4995722;28;20449;-76
2023/01/07 05:51:08;;;;;;;1.83;1.23;;;10.40;77.40;;;;;;4995505;28;20489;-76
2023/01/07 05:53:35;;;;;;;1.80;0.80;;;10.40;77.20;;;;;;4995316;28;20877;-76
2023/01/07 05:56:02;;;;;;;2.13;1.07;;;10.40;77.30;;;;;;4995578;28;20450;-76
2023/01/07 05:58:29;;;;;;;1.73;0.90;;;10.40;77.10;;;;;;4995530;28;20449;-76
2023/01/07 06:00:57;;;;;;;1.80;1.07;;;10.40;77.30;;;;;;4995213;28;20488;-77
2023/01/07 06:03:25;;;;;;;2.07;1.17;;;10.40;77.20;;;;;;4995124;28;20881;-76
2023/01/07 06:05:51;;;;;;;1.60;0.90;;;10.50;77.40;;;;;;4995389;28;20509;-76
2023/01/07 06:08:18;;;;;;;1.70;0.90;;;10.70;76.80;;;;;;4995450;28;20449;-76
2023/01/07 06:10:45;;;;;;;2.10;1.40;;;10.60;76.80;;;;;;4995090;28;20524;-76
2023/01/07 06:13:11;;;;;;;1.90;0.90;;;10.80;76.60;;;;;;4995223;28;20449;-76
2023/01/07 06:15:38;;;;;;;1.50;0.80;;;10.80;75.90;;;;;;4995182;28;20504;-76
2023/01/07 06:18:06;;;;;;;1.57;0.90;;;10.70;76.40;;;;;;4995119;28;20449;-76
2023/01/07 06:20:33;;;;;;;1.90;0.90;;;10.80;76.00;;;;;;4994694;28;20942;-76
2023/01/07 06:23:01;;;;;;;1.60;0.90;;;10.80;76.20;;;;;;4994978;28;20499;-76
2023/01/07 06:25:28;;;;;;;1.70;0.90;;;10.90;75.80;;;;;;4994986;28;20464;-76
2023/01/07 06:27:57;;;;;;;1.77;0.90;;;10.90;75.90;;;;;;4994616;28;20512;-76
2023/01/07 06:30:23;;;;;;;1.50;0.80;;;10.90;76.00;;;;;;4994830;28;20887;-76
2023/01/07 06:32:50;;;;;;;1.60;0.90;;;10.90;75.70;;;;;;4994823;28;20481;-76
2023/01/07 06:35:18;;;;;;;1.67;0.90;;;10.90;75.90;;;;;;4994802;28;20531;-76
2023/01/07 06:37:45;;;;;;;1.77;1.00;;;10.90;75.30;;;;;;4994821;28;20581;-77
2023/01/07 06:40:12;;;;;;;1.77;0.90;;;10.70;75.80;;;;;;4994675;28;20453;-76
2023/01/07 06:42:39;;;;;;;1.60;0.80;;;10.30;76.40;;;;;;4994281;28;20891;-76
2023/01/07 06:45:06;;;;;;;1.87;0.97;;;10.00;77.20;;;;;;4994312;28;20939;-77
2023/01/07 06:47:33;;;;;;;1.70;0.90;;;9.90;77.30;;;;;;4994595;28;20540;-76
2023/01/07 06:50:00;;;;;;;1.60;0.80;;;9.90;77.70;;;;;;4994531;28;20458;-76
2023/01/07 06:52:28;;;;;;;1.80;0.90;;;9.90;77.50;;;;;;4994389;28;20548;-75
2023/01/07 06:54:54;;;;;;;1.77;0.97;;;9.80;77.90;;;;;;4994562;28;20445;-76
2023/01/07 06:57:21;;;;;;;1.60;0.80;;;9.70;78.10;;;;;;4994467;28;20445;-76
2023/01/07 06:59:48;;;;;;;1.70;0.97;;;9.60;78.40;;;;;;4994350;28;20463;-76
2023/01/07 07:02:19;;;;;;;1.70;0.90;;;9.50;78.40;;;;;;4994007;28;20489;-77
2023/01/07 07:04:46;;;;;;;1.80;0.90;;;9.60;77.60;;;;;;4994145;28;20862;-76
2023/01/07 07:07:12;;;;;;;1.80;1.10;;;9.70;76.60;;;;;;4994437;28;20865;-75
2023/01/07 07:09:41;;;;;;;1.77;1.10;;;9.80;76.50;;;;;;4994331;28;20472;-75
2023/01/07 07:12:08;;;;;;;1.63;0.93;;;9.80;76.70;;;;;;4994158;28;20559;-75
2023/01/07 07:14:35;;;;;;;2.67;1.17;;;10.00;76.80;;;;;;4994222;28;20448;-67
2023/01/07 07:17:02;;;;;;;1.63;0.90;;;9.90;76.60;;;;;;4994120;28;20464;-68
2023/01/07 07:19:28;;;;;;;1.70;1.00;;;10.10;76.60;;;;;;4993824;28;20449;-66
2023/01/07 07:21:55;;;;;;;1.90;1.00;;;10.30;76.00;;;;;;4993996;28;20520;-66
2023/01/07 07:24:22;;;;;;;1.90;1.00;;;10.50;75.70;;;;;;4993755;28;20942;-68
2023/01/07 07:26:50;;;;;;;1.70;1.00;;;10.60;75.20;;;;;;4994000;28;20508;-67
2023/01/07 07:29:16;;;;;;;1.90;1.00;;;10.70;74.80;;;;;;4993928;28;20445;-68
2023/01/07 07:31:43;;;;;;;1.73;1.03;;;10.80;74.30;;;;;;4993796;28;20484;-67
2023/01/07 07:34:10;;;;;;;1.63;0.73;;;10.90;74.00;;;;;;4993242;28;20505;-69
2023/01/07 07:36:37;;;;;;;1.60;0.90;;;10.90;73.90;;;;;;4993886;28;20485;-68
2023/01/07 07:39:04;;;;;;;1.53;0.80;;;10.90;73.90;;;;;;4993857;28;20507;-67
2023/01/07 07:41:31;;;;;;;1.60;0.83;;;11.00;73.90;;;;;;4993812;28;20461;-67
2023/01/07 07:43:59;;;;;;;1.80;0.90;;;11.00;73.40;;;;;;4993821;28;20449;-68
2023/01/07 07:46:25;;;;;;;1.63;0.83;;;11.10;73.40;;;;;;4993818;28;20503;-68
2023/01/07 07:48:52;;;;;;;1.60;0.80;;;11.10;73.30;;;;;;4993844;28;20476;-68
2023/01/07 07:51:19;;;;;;;1.40;0.70;;;11.20;73.30;;;;;;4993580;28;20523;-67
2023/01/07 07:53:45;;;;;;;3.83;0.90;;;11.20;73.20;;;;;;4993758;28;20453;-69
2023/01/07 07:56:12;;;;;;;1.50;0.80;;;11.20;72.80;;;;;;4993745;28;20848;-71
2023/01/07 07:58:39;;;;;;;1.63;0.80;;;11.10;73.10;;;;;;4993741;28;20449;-69
2023/01/07 08:01:07;;;;;;;2.03;0.90;;;11.20;73.30;;;;;;4993418;28;20477;-71
2023/01/07 08:03:33;;;;;;;1.60;0.80;;;11.20;73.00;;;;;;4993781;28;20484;-69
2023/01/07 08:06:00;;;;;;;1.47;0.73;;;11.20;72.80;;;;;;4993679;28;20476;-71
2023/01/07 08:08:27;;;;;;;1.93;1.10;;;11.20;73.10;;;;;;4993564;28;20457;-67
2023/01/07 08:10:54;;;;;;;1.43;0.77;;;11.20;73.20;;;;;;4993555;28;20476;-67
2023/01/07 08:13:21;;;;;;;1.80;0.90;;;11.20;73.40;;;;;;4993513;28;20480;-66
2023/01/07 08:15:48;;;;;;;1.80;1.00;;;11.30;73.50;;;;;;4993561;28;20449;-70
2023/01/07 08:18:17;;;;;;;2.40;1.00;;;11.30;73.30;;;;;;4993339;28;20939;-69
2023/01/07 08:20:44;;;;;;;1.80;1.20;;;11.30;73.00;;;;;;4993385;28;20504;-69
2023/01/07 08:23:11;;;;;;;1.80;1.10;;;11.40;73.10;;;;;;4993443;28;20451;-66
2023/01/07 08:25:38;;;;;;;2.63;1.37;;;11.30;72.90;;;;;;4993641;28;20507;-67
2023/01/07 08:28:05;;;;;;;3.53;2.77;;;11.00;74.10;;;;;;4993529;28;20504;-66
2023/01/07 08:30:31;;;;;;;2.57;1.90;;;11.10;73.90;;;;;;4993400;28;20445;-67
2023/01/07 08:32:59;;;;;;;2.80;1.23;;;11.20;73.80;;;;;;4993402;28;20481;-68
2023/01/07 08:35:27;;;;;;;1.90;1.30;;;11.20;73.70;;;;;;4993406;28;20445;-67
2023/01/07 08:38:01;;;;;;;2.03;1.00;;;11.10;73.90;;;;;;4993368;28;20449;-68
2023/01/07 08:40:27;;;;;;;1.90;1.00;;;11.00;73.90;;;;;;4993303;28;20516;-68
2023/01/07 08:42:58;;;;;;;1.97;0.90;;;10.90;74.50;;;;;;4993303;28;20445;-66
2023/01/07 08:45:24;;;;;;;1.67;0.90;;;10.90;74.00;;;;;;4993746;28;20453;-68
2023/01/07 08:47:51;;;;;;;1.70;0.83;;;10.60;74.70;;;;;;4996506;28;21001;-67
2023/01/07 08:50:19;;;;;;;1.60;0.83;;;10.40;75.50;;;;;;4996753;28;20457;-67
2023/01/07 08:52:47;;;;;;;2.00;1.20;;;10.40;76.10;;;;;;4996598;28;20572;-72
2023/01/07 08:55:14;;;;;;;1.70;1.00;;;10.40;78.30;;;;;;4996658;28;20453;-70
2023/01/07 08:57:40;;;;;;;1.50;0.80;;;10.60;76.90;;;;;;4996644;28;20503;-65
2023/01/07 09:00:08;;;;;;;2.00;0.90;;;10.70;75.80;;;;;;4996518;28;20480;-65
2023/01/07 09:02:35;;;;;;;2.10;1.37;;;10.70;75.60;;;;;;4996182;28;20477;-67
2023/01/07 09:05:01;;;;;;;2.23;2.03;;;10.60;75.30;;;;;;4996375;28;20454;-65
2023/01/07 09:07:28;;;;;;;2.60;2.10;;;10.60;76.10;;;;;;4996145;28;20935;-69
2023/01/07 09:09:56;;;;;;;2.00;1.20;;;10.60;76.00;;;;;;4996366;28;20504;-67
2023/01/07 09:12:23;;;;;;;1.70;1.20;;;10.50;76.00;;;;;;4996110;28;20481;-71
2023/01/07 09:14:49;;;;;;;1.73;0.90;;;10.50;76.40;;;;;;4996362;28;20445;-74
2023/01/07 09:17:16;;;;;;;1.60;0.90;;;10.50;76.60;;;;;;4996506;28;20449;-72
2023/01/07 09:19:43;;;;;;;1.73;1.00;;;10.50;76.50;;;;;;4996260;28;20508;-70
2023/01/07 09:22:09;;;;;;;2.03;1.13;;;10.60;76.30;;;;;;4996380;28;20519;-71
2023/01/07 09:24:36;;;;;;;2.13;1.17;;;10.50;76.70;;;;;;4996645;28;20446;-69
2023/01/07 09:27:04;;;;;;;1.93;1.30;;;10.50;76.40;;;;;;4996106;28;20461;-68
2023/01/07 09:29:31;;;;;;;2.20;1.57;;;10.30;76.50;;;;;;4996062;28;20449;-68
2023/01/07 09:31:57;;;;;;;2.00;1.30;;;10.10;77.40;;;;;;4995660;28;20862;-68
2023/01/07 09:34:24;;;;;;;2.20;1.70;;;10.20;77.70;;;;;;4996039;28;20528;-68
2023/01/07 09:36:51;;;;;;;2.00;1.40;;;10.20;77.30;;;;;;4996032;28;20457;-68
2023/01/07 09:39:17;;;;;;;2.57;1.50;;;10.20;77.20;;;;;;4995954;28;20449;-68
2023/01/07 09:41:53;;;;;;;2.20;1.50;;;10.20;77.60;;;;;;4995945;28;20469;-67
2023/01/07 09:44:39;;;;;;;2.17;1.50;;;10.20;78.10;;;;;;4995999;28;20501;-67
2023/01/07 09:47:08;;;;;;;2.57;2.37;;;10.20;77.50;;;;;;4995889;28;20438;-67
2023/01/07 09:49:35;;;;;;;4.07;2.93;;;10.00;77.30;;;;;;4995809;28;20449;-67
2023/01/07 09:52:08;;;;;;;2.97;2.30;;;9.60;78.80;;;;;;4995717;28;20484;-66
2023/01/07 09:54:38;;;;;;;3.07;2.40;;;9.80;79.40;;;;;;4995509;28;20912;-67
2023/01/07 09:57:05;;;;;;;3.77;2.70;;;10.00;78.30;;;;;;4995286;28;20512;-67
2023/01/07 09:59:33;;;;;;;3.30;2.33;;;9.90;77.70;;;;;;4995748;28;20449;-68
2023/01/07 10:02:08;;;;;;;2.80;1.97;;;9.90;77.60;;;;;;4995272;28;20485;-67
2023/01/07 10:04:42;;;;;;;2.80;2.20;;;10.00;78.40;;;;;;4995704;28;20441;-66
2023/01/07 10:07:21;;;;;;;2.80;2.20;;;10.00;77.30;;;;;;4995635;28;20438;-66
2023/01/07 10:10:01;;;;;;;2.80;2.17;;;9.90;78.20;;;;;;4995422;28;20852;-67
2023/01/07 10:12:36;;;;;;;2.77;2.20;;;9.90;77.70;;;;;;4995267;28;20556;-67
2023/01/07 10:15:16;;;;;;;2.93;2.30;;;10.10;77.70;;;;;;4996487;28;20433;-67
2023/01/07 10:18:05;;;;;;;3.63;2.60;;;10.20;77.40;;;;;;4995294;28;20434;-68
2023/01/07 10:20:43;;;;;;;2.70;2.20;;;10.20;77.10;;;;;;4995136;28;20437;-68
2023/01/07 10:23:12;;;;;;;2.70;2.20;;;10.20;76.30;;;;;;4995096;28;20841;-67
2023/01/07 10:25:44;;;;;;;3.43;2.60;;;10.50;76.10;;;;;;4995008;28;20441;-67
2023/01/07 10:28:17;;;;;;;3.23;1.80;;;10.40;75.20;;;;;;4995493;28;20545;-68
2023/01/07 10:30:50;;;;;;;2.60;1.80;;;10.40;75.70;;;;;;4994872;28;20470;-69
2023/01/07 10:33:25;;;;;;;3.00;1.90;;;10.40;76.10;;;;;;4994858;28;20572;-67
2023/01/07 10:36:03;;;;;;;5.07;2.17;;;10.40;75.10;;;;;;4994919;28;20472;-68
2023/01/07 10:38:34;;;;;;;2.57;1.90;;;10.30;75.80;;;;;;4994753;28;20441;-67
2023/01/07 10:41:07;;;;;;;2.73;2.20;;;10.30;76.00;;;;;;4995327;28;20462;-67
2023/01/07 10:43:55;;;;;;;2.83;2.53;;;10.30;76.10;;;;;;4994493;28;20982;-67
2023/01/07 10:46:41;;;;;;;3.23;2.23;;;10.30;75.30;;;;;;4994858;28;20439;-68
2023/01/07 10:49:22;;;;;;;2.97;2.67;;;10.10;76.10;;;;;;4994609;28;20429;-67
2023/01/07 10:52:03;;;;;;;5.13;2.67;;;10.20;76.90;;;;;;4994575;28;20889;-69
2023/01/07 10:54:48;;;;;;;2.80;2.17;;;10.50;76.20;;;;;;4994425;28;20434;-67
2023/01/07 10:57:18;;;;;;;3.63;3.07;;;10.70;75.60;;;;;;4994467;28;20434;-67
2023/01/07 10:59:48;;;;;;;2.70;2.30;;;10.80;75.00;;;;;;4994370;28;20462;-67
2023/01/07 11:02:19;;;;;;;3.33;2.63;;;11.10;75.30;;;;;;4994009;28;20477;-68
2023/01/07 11:04:46;;;;;;;2.70;2.00;;;11.90;72.20;;;;;;4994158;28;20938;-68
2023/01/07 11:07:23;;;;;;;2.70;2.13;;;12.80;69.90;;;;;;4994278;28;20499;-69
2023/01/07 11:09:53;;;;;;;2.70;2.03;;;13.40;68.10;;;;;;4993309;28;20855;-69
2023/01/07 11:12:27;;;;;;;2.70;2.30;;;14.50;66.10;;;;;;4994070;28;20543;-68
2023/01/07 11:14:56;;;;;;;2.37;2.00;;;14.80;63.40;;;;;;4994267;28;20488;-68
2023/01/07 11:17:31;;;;;;;2.73;2.27;;;14.30;64.80;;;;;;4994161;28;20489;-68
2023/01/07 11:19:58;;;;;;;3.27;2.53;;;14.00;65.40;;;;;;4994167;28;20495;-68
2023/01/07 11:22:35;;;;;;;2.70;2.27;;;13.80;66.30;;;;;;4994027;28;20473;-68
2023/01/07 11:25:25;;;;;;;2.60;2.10;;;13.10;67.50;;;;;;4993694;28;20441;-69
2023/01/07 11:27:52;;;;;;;2.53;2.20;;;12.80;68.40;;;;;;4994083;28;20429;-68
2023/01/07 11:30:24;;;;;;;2.43;1.93;;;12.70;69.10;;;;;;4994091;28;20461;-69
2023/01/07 11:32:57;;;;;;;2.50;2.17;;;12.40;69.50;;;;;;4993742;28;20466;-69
2023/01/07 11:35:26;;;;;;;2.93;2.63;;;12.10;70.60;;;;;;4994076;28;20519;-68
2023/01/07 11:37:53;;;;;;;2.80;2.10;;;12.10;71.00;;;;;;4993923;28;20449;-67
2023/01/07 11:40:23;;;;;;;2.37;2.10;;;11.70;71.40;;;;;;4993813;28;20504;-68
2023/01/07 11:42:53;;;;;;;2.43;2.17;;;11.40;72.80;;;;;;4993791;28;20449;-67
2023/01/07 11:45:22;;;;;;;2.87;2.30;;;11.30;73.70;;;;;;4993760;28;20445;-69
2023/01/07 11:47:56;;;;;;;2.80;2.07;;;11.30;73.60;;;;;;4993907;28;20885;-69
2023/01/07 11:50:29;;;;;;;3.13;2.20;;;11.30;73.00;;;;;;4994217;28;20430;-69
2023/01/07 11:52:58;;;;;;;2.80;2.37;;;11.50;73.50;;;;;;4994433;28;20564;-69
2023/01/07 11:55:25;;;;;;;2.60;2.37;;;11.60;72.70;;;;;;4993911;28;20508;-68
2023/01/07 11:57:55;;;;;;;2.63;2.00;;;11.60;72.40;;;;;;4993914;28;20445;-68
2023/01/07 12:00:23;;;;;;;2.73;2.30;;;11.60;72.60;;;;;;4993761;28;20452;-67
2023/01/07 12:03:11;;;;;;;2.20;1.90;;;11.70;72.20;;;;;;4993731;28;20476;-66
2023/01/07 12:05:39;;;;;;;2.50;2.13;;;11.40;73.10;;;;;;4994173;28;20434;-67
2023/01/07 12:08:06;;;;;;;2.43;2.00;;;11.70;72.10;;;;;;4994124;28;20461;-67
2023/01/07 12:10:35;;;;;;;2.80;2.20;;;12.30;71.20;;;;;;4993830;28;20885;-66
2023/01/07 12:13:05;;;;;;;2.67;1.87;;;12.90;69.40;;;;;;4994129;28;20853;-69
2023/01/07 12:15:36;;;;;;;2.40;1.80;;;13.40;68.10;;;;;;4993934;28;20449;-68
2023/01/07 12:18:24;;;;;;;2.37;1.97;;;14.10;66.20;;;;;;4994396;28;20536;-67
2023/01/07 12:21:11;;;;;;;2.87;2.17;;;15.50;62.10;;;;;;4996231;28;20551;-67
2023/01/07 12:23:52;;;;;;;2.27;1.60;;;17.70;58.40;;;;;;4997357;28;20430;-67
2023/01/07 12:26:22;;;;;;;2.93;2.33;;;20.00;51.70;;;;;;4997239;28;20480;-67
2023/01/07 12:29:04;;;;;;;2.30;1.60;;;21.10;49.60;;;;;;5000018;28;20449;-67
2023/01/07 12:31:39;;;;;;;2.40;2.00;;;23.00;46.30;;;;;;5000723;28;20527;-67
2023/01/07 12:34:18;;;;;;;2.40;2.10;;;24.50;44.60;;;;;;4997150;28;20519;-67
2023/01/07 12:36:51;;;;;;;2.80;2.30;;;24.80;41.80;;;;;;4997092;28;20433;-67
2023/01/07 12:39:24;;;;;;;2.33;2.13;;;24.40;42.70;;;;;;4996746;28;20908;-67
2023/01/07 12:41:56;;;;;;;2.70;1.63;;;23.80;43.60;;;;;;4996966;28;20841;-67
2023/01/07 12:44:23;;;;;;;2.40;2.10;;;24.90;42.70;;;;;;4996995;28;20437;-67
2023/01/07 12:47:11;;;;;;;2.03;1.60;;;25.10;41.40;;;;;;4996877;28;20500;-67
2023/01/07 12:49:47;;;;;;;2.30;1.90;;;26.30;40.40;;;;;;4996844;28;20465;-67
2023/01/07 12:52:21;;;;;;;2.20;1.63;;;26.20;39.40;;;;;;4996457;28;20893;-67
2023/01/07 12:54:54;;;;;;;2.40;2.03;;;26.70;39.00;;;;;;4996740;28;20465;-67
2023/01/07 12:57:27;;;;;;;2.40;2.20;;;27.10;38.70;;;;;;4996703;28;20437;-67
2023/01/07 13:00:01;;;;;;;2.63;1.83;;;28.10;37.40;;;;;;4997205;28;20441;-67
2023/01/07 13:02:34;;;;;;;2.17;1.80;;;27.60;37.20;;;;;;4996199;28;20484;-67
2023/01/07 13:05:10;;;;;;;2.17;1.83;;;26.50;38.40;;;;;;4996306;28;20921;-67
2023/01/07 13:07:45;;;;;;;2.30;1.77;;;25.00;40.80;;;;;;4996608;28;20440;-67
2023/01/07 13:10:16;;;;;;;2.50;2.10;;;25.10;40.90;;;;;;4996521;28;20520;-67
2023/01/07 13:12:43;;;;;;;2.27;1.97;;;24.10;41.60;;;;;;4996434;28;20985;-69
2023/01/07 13:15:16;;;;;;;2.30;2.00;;;24.90;40.90;;;;;;4998066;28;20441;-68
2023/01/07 13:17:43;;;;;;;2.37;1.73;;;24.90;40.50;;;;;;4997036;28;20433;-68
2023/01/07 13:20:14;;;;;;;2.37;1.70;;;25.20;41.00;;;;;;4996980;28;20456;-68
2023/01/07 13:22:45;;;;;;;2.40;1.87;;;25.70;40.10;;;;;;4997299;28;20481;-67
2023/01/07 13:25:47;;;;;;;2.20;1.60;;;27.00;38.30;;;;;;4996462;28;20429;-69
2023/01/07 13:28:42;;;;;;;2.77;1.67;;;28.70;36.50;;;;;;4965330;28;20461;-69
2023/01/07 13:31:29;;;;;;;2.30;1.60;;;28.30;36.20;;;;;;4995921;28;20474;-68
2023/01/07 13:34:07;;;;;;;1.80;1.40;;;27.80;36.70;;;;;;4997065;28;20532;-69
2023/01/07 13:36:43;;;;;;;2.40;1.70;;;27.70;36.60;;;;;;4997079;28;20437;-68
2023/01/07 13:39:23;;;;;;;2.70;1.87;;;26.80;37.30;;;;;;4996596;28;20882;-69
2023/01/07 13:42:06;;;;;;;2.10;1.43;;;25.60;39.00;;;;;;4996868;28;20477;-69
2023/01/07 13:44:57;;;;;;;2.00;1.67;;;26.00;39.20;;;;;;4996828;28;20480;-69
2023/01/07 13:47:30;;;;;;;3.10;1.93;;;26.10;38.50;;;;;;4992980;28;20963;-69
2023/01/07 13:50:00;;;;;;;2.30;2.00;;;26.70;38.20;;;;;;4996783;28;20429;-68
2023/01/07 13:52:31;;;;;;;2.43;1.93;;;26.00;39.10;;;;;;4996474;28;21017;-69
2023/01/07 13:55:00;;;;;;;3.20;1.70;;;25.70;39.50;;;;;;4996322;28;20986;-69
2023/01/07 13:57:41;;;;;;;2.50;2.30;;;26.80;38.40;;;;;;4996298;28;20457;-69
2023/01/07 14:00:44;;;;;;;2.43;2.20;;;26.40;38.50;;;;;;4997052;28;20458;-68
2023/01/07 14:03:34;;;;;;;2.53;2.13;;;26.40;38.60;;;;;;4996480;28;20536;-72
2023/01/07 14:06:31;;;;;;;2.53;1.70;;;26.60;39.00;;;;;;4996748;28;20581;-68
2023/01/07 14:09:12;;;;;;;2.20;1.50;;;26.60;38.70;;;;;;4996856;28;20509;-69
2023/01/07 14:11:49;;;;;;;2.13;1.63;;;27.50;37.80;;;;;;4996572;28;20474;-69
2023/01/07 14:14:21;;;;;;;2.17;1.50;;;27.40;37.20;;;;;;4996767;28;20477;-68
2023/01/07 14:16:55;;;;;;;2.30;1.87;;;28.00;36.70;;;;;;4996333;28;20434;-69
2023/01/07 14:19:31;;;;;;;1.93;1.60;;;27.50;37.00;;;;;;4996701;28;20442;-69
2023/01/07 14:22:07;;;;;;;1.97;1.60;;;26.50;37.90;;;;;;4996523;28;20473;-68
2023/01/07 14:25:11;;;;;;;2.20;1.87;;;24.80;40.50;;;;;;4996239;28;20436;-68
2023/01/07 14:27:53;;;;;;;2.30;2.00;;;23.00;42.70;;;;;;4985829;28;20511;-71
2023/01/07 14:30:23;;;;;;;2.10;1.50;;;21.20;45.60;;;;;;4996153;28;20919;-68
2023/01/07 14:32:57;;;;;;;2.10;1.57;;;20.60;47.10;;;;;;4996437;28;20578;-67
2023/01/07 14:35:29;;;;;;;2.20;1.63;;;19.70;49.10;;;;;;4996438;28;20473;-68
2023/01/07 14:37:56;;;;;;;2.20;1.60;;;19.00;50.90;;;;;;4996451;28;20437;-68
2023/01/07 14:41:01;;;;;;;2.40;1.73;;;17.80;52.80;;;;;;4996468;28;20450;-68
2023/01/07 14:44:01;;;;;;;2.20;1.70;;;17.00;54.80;;;;;;4996096;28;20445;-68
2023/01/07 14:46:49;;;;;;;2.20;1.80;;;16.10;57.10;;;;;;4996058;28;20433;-68
2023/01/07 14:49:55;;;;;;;2.73;2.17;;;15.90;57.70;;;;;;4996268;28;20441;-70
2023/01/07 14:53:04;;;;;;;3.53;2.10;;;15.40;58.90;;;;;;4995928;28;20473;-69
2023/01/07 14:56:00;;;;;;;3.63;2.33;;;14.90;60.60;;;;;;4976375;28;21014;-67
2023/01/07 14:58:50;;;;;;;3.17;2.43;;;14.20;62.50;;;;;;4996099;28;20422;-66
2023/01/07 15:01:41;;;;;;;2.20;1.80;;;14.10;63.00;;;;;;4995500;28;20473;-68
2023/01/07 15:04:55;;;;;;;2.33;1.87;;;14.00;63.30;;;;;;4995850;28;20425;-68
2023/01/07 15:07:25;;;;;;;2.20;1.70;;;14.00;63.50;;;;;;4995910;28;20434;-66
2023/01/07 15:18:18;;;;;;;2.87;2.10;;;14.20;64.00;;;;;;4995579;28;20405;-68
2023/01/07 15:20:59;;;;;;;3.33;1.90;;;14.10;64.20;;;;;;4995200;28;20842;-68
2023/01/07 15:23:32;;;;;;;2.50;1.80;;;14.00;64.50;;;;;;4995411;28;20434;-67
2023/01/07 15:26:05;;;;;;;2.33;1.80;;;13.90;64.90;;;;;;4995582;28;20441;-67
2023/01/07 15:28:42;;;;;;;3.57;2.60;;;13.80;65.10;;;;;;4995356;28;20441;-67
2023/01/07 15:31:18;;;;;;;3.27;2.97;;;13.70;65.60;;;;;;4995534;28;20480;-68
2023/01/07 15:33:57;;;;;;;2.60;2.40;;;13.60;65.80;;;;;;4994968;28;20919;-68
2023/01/07 15:36:24;;;;;;;3.60;2.83;;;13.40;66.30;;;;;;4995293;28;20517;-68
2023/01/07 15:38:53;;;;;;;3.60;3.27;;;13.30;66.60;;;;;;4995921;28;20445;-68
2023/01/07 15:41:26;;;;;;;3.33;2.80;;;13.20;66.80;;;;;;4995286;28;20477;-68
2023/01/07 15:43:55;;;;;;;5.37;3.23;;;13.20;67.00;;;;;;4994868;28;20496;-68
2023/01/07 15:46:24;;;;;;;3.13;2.83;;;13.00;67.10;;;;;;4994590;28;20449;-67
2023/01/07 15:49:15;;;;;;;3.67;3.13;;;13.00;67.30;;;;;;4994225;28;20966;-68
2023/01/07 15:51:44;;;;;;;3.30;2.67;;;12.80;67.70;;;;;;4994765;28;20473;-68
2023/01/07 15:54:31;;;;;;;3.20;2.37;;;12.70;67.90;;;;;;4994751;28;20485;-67
2023/01/07 15:57:02;;;;;;;3.20;2.73;;;12.60;68.20;;;;;;4998813;28;20523;-68
2023/01/07 15:59:32;;;;;;;3.23;2.93;;;12.50;68.60;;;;;;4998481;28;20441;-68
2023/01/07 16:02:05;;;;;;;4.00;2.60;;;12.40;68.90;;;;;;4998202;28;20979;-66
2023/01/07 16:04:37;;;;;;;3.00;2.00;;;12.10;69.60;;;;;;4998194;28;20425;-68
2023/01/07 16:07:03;;;;;;;3.53;2.10;;;12.10;69.90;;;;;;4998137;28;20441;-68
2023/01/07 16:09:30;;;;;;;2.43;2.13;;;11.90;70.40;;;;;;4997929;28;20817;-66
2023/01/07 16:11:57;;;;;;;2.87;2.57;;;11.80;70.60;;;;;;4998310;28;20473;-69
2023/01/07 16:14:25;;;;;;;3.00;2.70;;;11.60;71.30;;;;;;4999315;28;20488;-68
2023/01/07 16:17:12;;;;;;;2.50;2.13;;;11.40;71.90;;;;;;4998268;28;20453;-68
2023/01/07 16:19:39;;;;;;;3.80;2.40;;;11.60;71.40;;;;;;4998557;28;20464;-67
2023/01/07 16:22:08;;;;;;;3.20;2.60;;;11.70;71.10;;;;;;4998730;28;20476;-68
2023/01/07 16:24:35;;;;;;;2.77;2.03;;;11.70;71.00;;;;;;4997955;28;20785;-68
2023/01/07 16:27:03;;;;;;;3.13;2.53;;;11.80;70.60;;;;;;4997896;28;20548;-66
2023/01/07 16:29:33;;;;;;;3.63;2.37;;;11.70;70.50;;;;;;4997273;28;20445;-66
2023/01/07 16:32:01;;;;;;;2.90;2.47;;;11.70;70.50;;;;;;4997903;28;20836;-67
2023/01/07 16:34:54;;;;;;;3.87;2.77;;;11.70;70.50;;;;;;4998079;28;20491;-67
2023/01/07 16:37:21;;;;;;;2.83;2.37;;;11.60;70.70;;;;;;4998098;28;20437;-68
2023/01/07 16:39:50;;;;;;;4.47;3.13;;;11.50;70.90;;;;;;4997812;28;20453;-66
2023/01/07 16:42:19;;;;;;;3.30;3.00;;;11.50;70.90;;;;;;4998080;28;20555;-70
2023/01/07 16:45:17;;;;;;;3.63;3.23;;;11.40;71.00;;;;;;4998233;28;20450;-68
2023/01/07 16:48:02;;;;;;;3.10;2.43;;;11.20;71.80;;;;;;4999439;28;20814;-66
2023/01/07 16:50:39;;;;;;;4.83;3.07;;;11.10;72.40;;;;;;4997715;28;20516;-67
2023/01/07 16:53:31;;;;;;;3.37;3.07;;;11.10;72.20;;;;;;4998193;28;20438;-68
2023/01/07 16:56:14;;;;;;;3.50;3.13;;;11.10;72.20;;;;;;4997836;28;20520;-68
2023/01/07 16:58:46;;;;;;;4.43;3.30;;;11.00;72.20;;;;;;4998586;28;20441;-67
2023/01/07 17:01:18;;;;;;;3.43;2.90;;;10.90;72.60;;;;;;4996387;28;20485;-67
2023/01/07 17:03:48;;;;;;;6.07;3.03;;;10.90;73.00;;;;;;4996366;28;20910;-66
2023/01/07 17:06:22;;;;;;;3.30;2.87;;;10.90;72.80;;;;;;4995486;28;20445;-66
2023/01/07 17:08:51;;;;;;;3.03;2.67;;;10.80;73.20;;;;;;4996708;28;20499;-66
2023/01/07 17:11:23;;;;;;;4.13;3.00;;;10.70;73.20;;;;;;4996570;28;20473;-66
2023/01/07 17:13:49;;;;;;;4.87;3.43;;;10.50;74.00;;;;;;4996350;28;20970;-66
2023/01/07 17:16:23;;;;;;;3.93;3.23;;;10.20;75.10;;;;;;4996130;28;21027;-66
2023/01/07 17:18:50;;;;;;;3.83;3.20;;;10.30;75.00;;;;;;4996503;28;20429;-66
2023/01/07 17:21:46;;;;;;;4.23;3.83;;;10.50;74.30;;;;;;4996708;28;20473;-66